Etowah, TN (37331)

6:18 AM EDT on September 05, 2015 (GMT -0400)
A Starr Mountain View | | Change Station
CLOSE
Current Station
Personal Weather Station
Location: Etowah, TN
Elevation: 950 ft
Nearby Weather Stations

Elev 950 ft 35.33 °N, 84.49 °W | Updated 14 seconds ago

Clear
Clear
74.0 °F
Feels Like 74 °F
N
0.0
Wind Variable Wind from South
Gusts 1.0 mph

Today
High -- | Low -- °F
--% Chance of Precip.
Yesterday
High -- | Low -- °F
Precip. -- in
7:13 AM 7:59 PM
Waning Gibbous, 50% visible
Pressure 30.11 in
Visibility 6.0 miles
Clouds Clear
Heat Index 74 °F
Dew Point 67 °F
Humidity 80%
Rainfall 0.00 in
Snow Depth Not available.
UV 0 out of 12
Pollen 9.70 out of 12
Air Quality Not available.
Flu Activity Not available.
METAR KMMI 051015Z AUTO 00000KT 6SM CLR 19/18 A3011 RMK
Pressure 30.11 in
Visibility 6.0 miles
Clouds Clear
Heat Index 74 °F
Dew Point 67 °F
Humidity 80%
Rainfall 0.00 in
Snow Depth Not available.
UV 0 out of 12
Pollen 9.70 out of 12
Air Quality Not available.
Flu Activity Not available.
METAR KMMI 051015Z AUTO 00000KT 6SM CLR 19/18 A3011 RMK

10-Day Weather Forecast

×

Almanac

Astronomy

Sep. 05, 2015 Rise Set
Actual Time
Civil Twilight
Nautical Twilight
Astronomical Twilight
Moon
Length of Visible Light
Length of Day
Tomorrow will be .
, % of the Moon is Illuminated

Today's Extremes

State Highs State Lows

Community

WunderPhotos

Upload Photos

1,852,440 photos uploaded!

WunderBlogs® & News

Nearby

Air Quality

  Air Quality AQ Index Pollutant
Not available.

Snow Depth

Station Depth Elevation

Earthquake Activity

City Distance Mag. Time & Date
Minimum magnitude displayed is 2.5.

Coastal Water Temperatures

Place Temperature

Stations

Nearby Weather Stations

Station Location Temp. Windchill Dew Point Humidity Wind Precip. Elev Updated Type